Time;durP1;ratioP1;P1;durP2;ratioP2;P2;SDS_P1;SDS_P2;PMS_P1;PMS_P2;Temp;Humidity;BMP_temperature;BMP_pressure;BME280_temperature;BME280_humidity;BME280_pressure;Samples;Min_cycle;Max_cycle;Signal;HPM_P1;HPM_P2
2021/12/10 03:45:18;;;;;;;20.35;11.95;;;4.00;99.90;;;;;;5637818;25;20841;31
2021/12/10 03:47:45;;;;;;;20.48;12.85;;;3.90;99.90;;;;;;4633793;30;20054;-80
2021/12/10 03:50:19;;;;;;;22.13;13.40;;;3.90;99.90;;;;;;4658841;30;20047;-80
2021/12/10 03:52:45;;;;;;;16.73;11.98;;;3.90;99.90;;;;;;4658697;30;20048;-80
2021/12/10 03:55:13;;;;;;;17.65;12.75;;;3.90;99.90;;;;;;4644640;30;20039;-80
2021/12/10 03:57:39;;;;;;;16.75;11.82;;;4.00;99.90;;;;;;4644709;30;20385;-80
2021/12/10 04:00:06;;;;;;;22.98;12.45;;;3.90;99.90;;;;;;4644540;30;20062;-80
2021/12/10 04:02:32;;;;;;;18.15;12.13;;;3.90;99.90;;;;;;4650006;30;20054;-80
2021/12/10 04:04:58;;;;;;;19.70;13.00;;;3.90;99.90;;;;;;4644436;30;20066;-80
2021/12/10 04:07:26;;;;;;;26.38;12.75;;;3.90;99.90;;;;;;4644356;30;20039;-80
2021/12/10 04:09:54;;;;;;;19.90;13.50;;;3.90;99.90;;;;;;4644274;30;20035;-81
2021/12/10 04:12:22;;;;;;;20.05;13.95;;;3.80;99.90;;;;;;4644207;30;20039;-80
2021/12/10 04:14:50;;;;;;;21.75;12.73;;;3.70;99.90;;;;;;4630076;30;20049;-80
2021/12/10 04:17:19;;;;;;;21.85;14.00;;;3.60;99.90;;;;;;4630106;30;20082;-81
2021/12/10 04:19:46;;;;;;;20.73;12.57;;;3.50;99.90;;;;;;4638518;30;20227;-81
2021/12/10 04:22:12;;;;;;;;;;;3.50;99.90;;;;;;4658626;30;20030;-81
2021/12/10 04:24:40;;;;;;;26.98;15.65;;;3.40;99.90;;;;;;4638027;30;19924;-81
2021/12/10 04:27:08;;;;;;;23.40;14.02;;;3.30;99.90;;;;;;4658123;30;20704;-81
2021/12/10 04:29:35;;;;;;;23.58;15.88;;;3.20;99.90;;;;;;4629892;30;20402;-80
2021/12/10 04:32:03;;;;;;;23.25;15.30;;;3.20;99.90;;;;;;4627354;31;20039;-81
2021/12/10 04:34:29;;;;;;;23.52;14.38;;;3.20;99.90;;;;;;4640509;31;20146;-81
2021/12/10 04:36:59;;;;;;;25.40;15.60;;;3.20;99.90;;;;;;4627139;31;20044;-80
2021/12/10 04:39:27;;;;;;;26.23;16.15;;;3.10;99.90;;;;;;4629948;30;20042;-81
2021/12/10 04:41:53;;;;;;;25.00;15.40;;;3.10;99.90;;;;;;4629947;30;20058;-81
2021/12/10 04:44:19;;;;;;;24.55;14.45;;;3.00;99.90;;;;;;4626990;31;20047;-81
2021/12/10 04:46:44;;;;;;;26.52;14.57;;;3.00;99.90;;;;;;4650800;30;20066;-80
2021/12/10 04:49:13;;;;;;;23.33;13.80;;;3.00;99.90;;;;;;4658088;30;20038;-81
2021/12/10 04:51:42;;;;;;;22.98;15.13;;;3.00;99.90;;;;;;4675511;30;20042;-80
2021/12/10 04:54:11;;;;;;;22.60;13.60;;;3.00;99.90;;;;;;4676456;30;20117;-81
2021/12/10 04:56:38;;;;;;;21.35;14.23;;;2.90;99.90;;;;;;4661643;30;20049;-81
2021/12/10 04:59:06;;;;;;;22.25;13.23;;;2.90;99.90;;;;;;4675300;30;20046;-81
2021/12/10 05:01:33;;;;;;;22.35;13.93;;;2.80;99.90;;;;;;4675459;30;20038;-81
2021/12/10 05:04:00;;;;;;;21.02;13.77;;;2.70;99.90;;;;;;4661423;30;20092;-82
2021/12/10 05:06:26;;;;;;;29.15;15.02;;;2.70;99.90;;;;;;4647250;30;20034;-82
2021/12/10 05:08:52;;;;;;;23.35;13.35;;;2.60;99.90;;;;;;4654798;30;20046;-82
2021/12/10 05:11:18;;;;;;;26.27;13.98;;;2.60;99.90;;;;;;4660153;30;20085;-80
2021/12/10 05:13:46;;;;;;;32.50;15.88;;;2.50;99.90;;;;;;4663364;30;20866;-80
2021/12/10 05:16:13;;;;;;;31.63;15.23;;;2.50;99.90;;;;;;4674259;30;20038;-81
2021/12/10 05:18:43;;;;;;;30.65;16.38;;;2.40;99.90;;;;;;4660237;30;20143;-80
2021/12/10 05:21:11;;;;;;;37.83;17.40;;;2.40;99.90;;;;;;4660602;30;20038;-80
2021/12/10 05:23:37;;;;;;;32.88;16.75;;;2.40;99.90;;;;;;4660153;30;20070;-81
2021/12/10 05:26:05;;;;;;;37.10;18.47;;;2.40;99.90;;;;;;4649532;30;20038;-82
2021/12/10 05:28:31;;;;;;;39.83;17.25;;;2.40;99.90;;;;;;4660060;30;20045;-81
2021/12/10 05:30:57;;;;;;;53.30;18.97;;;2.40;99.90;;;;;;4659817;30;20042;-81
2021/12/10 05:33:25;;;;;;;30.52;16.63;;;2.40;99.90;;;;;;4645867;30;20290;-80
2021/12/10 05:35:52;;;;;;;25.33;15.35;;;2.30;99.90;;;;;;4659975;30;20034;-81
2021/12/10 05:38:19;;;;;;;25.75;14.90;;;2.30;99.90;;;;;;4674087;30;20057;-81
2021/12/10 05:40:48;;;;;;;32.42;16.58;;;2.30;99.90;;;;;;4674989;30;20077;-81
2021/12/10 05:43:14;;;;;;;27.25;14.65;;;2.20;99.90;;;;;;4659757;30;20042;-81
2021/12/10 05:45:40;;;;;;;27.13;13.30;;;2.20;99.90;;;;;;4659326;30;20064;-81
2021/12/10 05:48:06;;;;;;;24.23;13.32;;;2.20;99.90;;;;;;4659671;30;20034;-81
2021/12/10 05:50:33;;;;;;;23.02;12.75;;;2.10;99.90;;;;;;4659452;30;20109;-81
2021/12/10 05:52:59;;;;;;;24.58;12.25;;;2.10;99.90;;;;;;4659651;30;20066;-81
2021/12/10 05:55:25;;;;;;;28.52;13.75;;;2.10;99.90;;;;;;4671237;30;20121;-81
2021/12/10 05:57:52;;;;;;;26.83;13.60;;;2.00;99.90;;;;;;4666693;30;20033;-81
2021/12/10 06:00:22;;;;;;;24.42;12.07;;;2.00;99.90;;;;;;4651388;30;20034;-81
2021/12/10 06:02:48;;;;;;;27.33;12.80;;;1.90;99.90;;;;;;4654053;30;20061;-82
2021/12/10 06:05:14;;;;;;;25.85;12.88;;;1.90;99.90;;;;;;4666820;30;20148;-82
2021/12/10 06:07:40;;;;;;;24.25;11.98;;;1.90;99.90;;;;;;4659735;30;20262;-82
2021/12/10 06:10:09;;;;;;;22.92;12.50;;;1.90;99.90;;;;;;4659238;30;20045;-82
2021/12/10 06:12:35;;;;;;;25.90;12.52;;;1.90;99.90;;;;;;4659435;30;20039;-82
2021/12/10 06:15:01;;;;;;;23.38;12.90;;;1.90;99.90;;;;;;4659280;30;20104;-81
2021/12/10 06:17:27;;;;;;;41.33;24.00;;;1.90;99.90;;;;;;4656969;30;20073;-81
2021/12/10 06:19:52;;;;;;;23.40;12.93;;;1.90;99.90;;;;;;4650700;30;20054;-81
2021/12/10 06:22:18;;;;;;;29.20;12.55;;;1.90;99.90;;;;;;4652404;30;20035;-81
2021/12/10 06:24:44;;;;;;;26.52;14.63;;;1.90;99.90;;;;;;4656837;30;20052;-82
2021/12/10 06:27:10;;;;;;;26.42;14.45;;;1.80;99.90;;;;;;4632561;30;20065;-81
2021/12/10 06:29:40;;;;;;;26.83;13.45;;;1.80;99.90;;;;;;4659556;30;20226;-81
2021/12/10 06:32:07;;;;;;;40.00;14.45;;;1.80;99.90;;;;;;4649065;30;20042;-82
2021/12/10 06:34:33;;;;;;;28.33;13.85;;;1.80;99.90;;;;;;4667026;30;20030;-81
2021/12/10 06:36:58;;;;;;;33.10;15.18;;;1.80;99.90;;;;;;4667948;30;20349;-81
2021/12/10 06:39:24;;;;;;;42.22;15.30;;;1.70;99.90;;;;;;4652816;30;20038;-82
2021/12/10 06:41:52;;;;;;;25.85;13.30;;;1.70;99.90;;;;;;4659362;30;20042;-81
2021/12/10 06:44:18;;;;;;;23.58;13.27;;;1.70;99.90;;;;;;4659274;30;20136;-81
2021/12/10 06:46:45;;;;;;;23.08;12.57;;;1.60;99.90;;;;;;4632030;30;20242;-82
2021/12/10 06:49:12;;;;;;;25.33;13.00;;;1.60;99.90;;;;;;4658353;30;20019;-83
2021/12/10 06:51:38;;;;;;;25.75;12.73;;;1.60;99.90;;;;;;4644260;30;20468;-83
2021/12/10 06:54:03;;;;;;;24.05;13.68;;;1.60;99.90;;;;;;4660906;30;20095;-83
2021/12/10 06:56:31;;;;;;;24.52;13.27;;;1.70;99.90;;;;;;4658578;30;20129;-82
2021/12/10 06:58:57;;;;;;;24.60;13.63;;;1.70;99.90;;;;;;4675373;30;20242;-83
2021/12/10 07:01:29;;;;;;;28.83;14.50;;;1.80;99.90;;;;;;4661441;30;20042;-83
2021/12/10 07:03:57;;;;;;;24.13;14.57;;;1.80;99.90;;;;;;4675484;30;20289;-83
2021/12/10 07:06:25;;;;;;;27.58;14.88;;;1.80;99.90;;;;;;4671571;30;20038;-83
2021/12/10 07:08:52;;;;;;;30.05;14.88;;;1.80;99.90;;;;;;4661601;30;20046;-83
2021/12/10 07:11:21;;;;;;;24.95;15.07;;;1.90;99.90;;;;;;4671047;30;20030;-83
2021/12/10 07:13:49;;;;;;;36.05;17.42;;;1.90;99.90;;;;;;4666587;30;20037;-83
2021/12/10 07:16:16;;;;;;;29.63;14.88;;;1.80;99.90;;;;;;4672968;30;20357;-83
2021/12/10 07:18:42;;;;;;;24.42;14.05;;;1.80;99.90;;;;;;4673868;30;20034;-82
2021/12/10 07:21:08;;;;;;;38.97;18.85;;;1.90;99.90;;;;;;4642213;30;20057;-82
2021/12/10 07:23:37;;;;;;;29.33;16.30;;;1.90;99.90;;;;;;4658661;30;20230;-83
2021/12/10 07:26:04;;;;;;;38.33;16.75;;;1.90;99.90;;;;;;4655999;30;20106;-82
2021/12/10 07:28:31;;;;;;;28.73;15.82;;;2.00;99.90;;;;;;4661876;30;20031;-82
2021/12/10 07:30:58;;;;;;;28.58;16.25;;;2.00;99.90;;;;;;4639498;30;20031;-82
2021/12/10 07:33:24;;;;;;;;;;;2.00;99.90;;;;;;4658094;30;20054;-82
2021/12/10 07:35:50;;;;;;;25.37;14.20;;;2.00;99.90;;;;;;4671673;30;19950;-82
2021/12/10 07:38:17;;;;;;;27.88;16.55;;;2.10;99.90;;;;;;4659499;30;20041;-82
2021/12/10 07:40:43;;;;;;;33.53;17.63;;;2.10;99.90;;;;;;4659955;30;20038;-82
2021/12/10 07:43:10;;;;;;;38.85;19.15;;;2.10;99.90;;;;;;4659408;30;20336;-82
2021/12/10 07:45:38;;;;;;;34.63;19.63;;;2.10;99.90;;;;;;4657338;30;20064;-82
2021/12/10 07:48:08;;;;;;;36.08;19.10;;;2.10;99.90;;;;;;4657463;30;20061;-82
2021/12/10 07:50:37;;;;;;;30.38;17.63;;;2.10;99.90;;;;;;4643860;30;20038;-82
2021/12/10 07:53:04;;;;;;;35.90;18.70;;;2.10;99.90;;;;;;4660169;30;20057;-82
2021/12/10 07:55:34;;;;;;;33.15;17.65;;;2.10;99.90;;;;;;4657388;30;20226;-82
2021/12/10 07:58:02;;;;;;;30.35;16.25;;;2.20;99.90;;;;;;4671456;30;20037;-82
2021/12/10 08:00:31;;;;;;;28.70;16.65;;;2.20;99.90;;;;;;4683276;30;20030;-82
2021/12/10 08:02:57;;;;;;;30.38;15.98;;;2.20;99.90;;;;;;4652255;30;20098;-82
2021/12/10 08:05:24;;;;;;;27.85;15.15;;;2.20;99.90;;;;;;4656682;30;20045;-82
2021/12/10 08:07:52;;;;;;;29.90;15.45;;;2.30;99.90;;;;;;4642898;30;20069;-82
2021/12/10 08:10:19;;;;;;;27.60;16.70;;;2.40;99.90;;;;;;4641787;30;20327;-80
2021/12/10 08:12:44;;;;;;;27.27;14.88;;;2.50;99.90;;;;;;4663398;30;20290;-81
2021/12/10 08:15:11;;;;;;;27.92;16.17;;;2.50;99.90;;;;;;4671330;30;20038;-81
2021/12/10 08:17:37;;;;;;;33.20;17.30;;;2.60;99.90;;;;;;4661494;30;20125;-81
2021/12/10 08:20:08;;;;;;;31.08;16.05;;;2.60;99.90;;;;;;4671578;30;20097;-81
2021/12/10 08:22:33;;;;;;;26.08;14.90;;;2.60;99.90;;;;;;4669183;30;20038;-81
2021/12/10 08:24:59;;;;;;;30.75;16.90;;;2.70;99.90;;;;;;4655784;30;20049;-81
2021/12/10 08:27:25;;;;;;;31.83;15.82;;;2.70;99.90;;;;;;4667291;30;20448;-80
2021/12/10 08:29:51;;;;;;;30.25;16.88;;;2.70;99.90;;;;;;4651320;30;20278;-81
2021/12/10 08:32:20;;;;;;;28.80;16.33;;;2.80;99.90;;;;;;4650028;30;20114;-81
2021/12/10 08:34:49;;;;;;;32.67;17.23;;;2.80;99.90;;;;;;4673028;30;20050;-81
2021/12/10 08:37:16;;;;;;;29.20;16.52;;;2.80;99.90;;;;;;4658022;30;20296;-81
2021/12/10 08:39:42;;;;;;;28.83;17.30;;;2.80;99.90;;;;;;4653084;30;20035;-81
2021/12/10 08:42:08;;;;;;;30.00;17.05;;;2.80;99.90;;;;;;4652784;30;20038;-81
2021/12/10 08:44:35;;;;;;;29.65;15.73;;;2.70;99.90;;;;;;4651046;30;20051;-81
2021/12/10 08:47:01;;;;;;;31.00;15.13;;;2.70;99.40;;;;;;4659011;30;20126;-80
2021/12/10 08:49:28;;;;;;;28.25;14.25;;;2.40;99.00;;;;;;4666474;30;20030;-80
2021/12/10 08:51:57;;;;;;;27.67;15.00;;;2.30;99.10;;;;;;4652374;30;20034;-81
2021/12/10 08:54:29;;;;;;;27.65;15.73;;;2.30;99.90;;;;;;4671707;30;20047;-81
2021/12/10 08:56:56;;;;;;;34.28;14.65;;;2.30;99.90;;;;;;4652256;30;20618;-81
2021/12/10 08:59:24;;;;;;;28.17;16.30;;;2.30;99.60;;;;;;4670623;30;20272;-81
2021/12/10 09:01:56;;;;;;;25.17;13.98;;;2.30;99.40;;;;;;4667224;30;20076;-81
2021/12/10 09:04:22;;;;;;;25.58;15.85;;;2.30;99.90;;;;;;4677699;30;20156;-81
2021/12/10 09:06:54;;;;;;;26.15;13.77;;;2.30;99.90;;;;;;4671993;30;20069;-81
2021/12/10 09:09:22;;;;;;;24.25;13.38;;;2.40;99.90;;;;;;4670322;30;20050;-81
2021/12/10 09:11:52;;;;;;;28.40;13.27;;;2.50;99.30;;;;;;4669422;30;20048;-81
2021/12/10 09:14:20;;;;;;;26.83;13.75;;;2.30;98.20;;;;;;4667182;30;20042;-81
2021/12/10 09:16:47;;;;;;;22.63;12.90;;;2.10;98.60;;;;;;4647784;30;20045;-81
2021/12/10 09:19:15;;;;;;;23.65;14.18;;;2.10;99.10;;;;;;4673422;30;20042;-81
2021/12/10 09:21:42;;;;;;;26.42;15.23;;;1.90;98.90;;;;;;4673123;30;20046;-80
2021/12/10 09:24:10;;;;;;;29.13;17.73;;;1.80;99.00;;;;;;4673733;30;20046;-80
2021/12/10 09:26:42;;;;;;;31.50;18.38;;;1.60;99.30;;;;;;4662745;30;20044;-81
2021/12/10 09:29:11;;;;;;;44.90;20.67;;;1.50;99.50;;;;;;4674922;30;20026;-80
2021/12/10 09:31:39;;;;;;;45.13;20.65;;;1.40;99.70;;;;;;4673064;30;20118;-81
2021/12/10 09:34:06;;;;;;;37.75;22.23;;;1.40;99.90;;;;;;4661982;30;20045;-81
2021/12/10 09:36:33;;;;;;;44.58;23.75;;;1.40;99.90;;;;;;4659149;30;20234;-80
2021/12/10 09:38:59;;;;;;;45.03;25.20;;;1.50;99.90;;;;;;4645558;30;20056;-80
2021/12/10 09:41:26;;;;;;;49.20;23.75;;;1.50;99.60;;;;;;4658942;30;20061;-80
2021/12/10 09:43:53;;;;;;;46.93;25.80;;;1.40;99.50;;;;;;4667062;30;20070;-82
2021/12/10 09:46:19;;;;;;;43.72;23.27;;;1.40;99.80;;;;;;4672294;30;20059;-81
2021/12/10 09:48:45;;;;;;;45.43;23.17;;;1.20;99.60;;;;;;4672563;30;20035;-81
2021/12/10 09:51:16;;;;;;;43.83;23.13;;;1.20;99.90;;;;;;4672825;30;20341;-80
2021/12/10 09:53:44;;;;;;;48.28;23.70;;;1.20;99.90;;;;;;4673141;30;20109;-82
2021/12/10 09:56:14;;;;;;;48.75;25.67;;;1.30;99.90;;;;;;4662426;30;20042;-80
2021/12/10 09:58:40;;;;;;;44.03;23.33;;;1.40;99.90;;;;;;4659287;30;20038;-81
2021/12/10 10:01:14;;;;;;;48.97;28.33;;;1.40;99.90;;;;;;4663064;30;20044;-80
2021/12/10 10:03:43;;;;;;;44.80;26.13;;;1.50;99.50;;;;;;4673162;30;20065;-81
2021/12/10 10:06:12;;;;;;;51.22;25.75;;;1.50;99.90;;;;;;4673290;30;20034;-81
2021/12/10 10:08:38;;;;;;;47.08;24.88;;;1.60;99.60;;;;;;4659073;30;20039;-81
2021/12/10 10:11:19;;;;;;;49.35;26.33;;;1.50;99.20;;;;;;4673121;30;20038;-80
2021/12/10 10:13:47;;;;;;;50.75;26.60;;;1.50;99.70;;;;;;4674267;30;20118;-81
2021/12/10 10:16:15;;;;;;;53.83;26.55;;;1.60;99.80;;;;;;4669633;30;20049;-81
2021/12/10 10:18:43;;;;;;;48.55;26.80;;;1.60;99.60;;;;;;4658822;30;20046;-82
2021/12/10 10:21:19;;;;;;;45.50;25.02;;;1.50;99.70;;;;;;4672710;30;20082;-80
2021/12/10 10:23:46;;;;;;;57.20;27.20;;;1.60;99.90;;;;;;4673277;30;20326;-81
2021/12/10 10:26:16;;;;;;;46.35;26.08;;;1.70;99.90;;;;;;4672659;30;20061;-81
2021/12/10 10:28:43;;;;;;;46.88;23.85;;;1.90;99.20;;;;;;4665535;30;20097;-80
2021/12/10 10:31:17;;;;;;;43.13;24.13;;;1.70;98.80;;;;;;4659705;30;20034;-80
2021/12/10 10:33:45;;;;;;;43.45;23.63;;;1.60;99.30;;;;;;4670850;30;20109;-80
2021/12/10 10:36:19;;;;;;;48.97;25.90;;;1.60;99.40;;;;;;4646377;30;20042;-80
2021/12/10 10:38:57;;;;;;;49.15;24.85;;;1.70;99.60;;;;;;4646103;30;20035;-81
2021/12/10 10:41:27;;;;;;;48.88;24.70;;;1.60;99.40;;;;;;4673308;30;20039;-81
2021/12/10 10:43:54;;;;;;;46.60;25.20;;;1.60;99.90;;;;;;4673012;30;20097;-81
2021/12/10 10:46:19;;;;;;;;;;;1.70;99.90;;;;;;4687875;30;20054;-81
2021/12/10 10:48:48;;;;;;;47.70;24.87;;;1.80;99.90;;;;;;4680438;30;20187;-81
2021/12/10 10:51:24;;;;;;;43.05;21.92;;;1.90;99.90;;;;;;4662890;30;20057;-81
2021/12/10 10:53:53;;;;;;;44.13;23.88;;;2.10;99.90;;;;;;4672115;30;20054;-81
2021/12/10 10:56:25;;;;;;;46.47;24.35;;;2.40;99.90;;;;;;4679581;30;20049;-81
2021/12/10 10:58:56;;;;;;;49.63;24.42;;;2.70;99.90;;;;;;4677910;30;20113;-81
2021/12/10 11:01:32;;;;;;;45.65;23.58;;;2.90;99.90;;;;;;4678199;30;20030;-81
2021/12/10 11:04:08;;;;;;;52.43;25.37;;;3.10;99.70;;;;;;4683869;30;20043;-81
2021/12/10 11:06:38;;;;;;;52.85;26.80;;;3.20;99.30;;;;;;4674435;30;20034;-81
2021/12/10 11:09:14;;;;;;;56.33;27.02;;;3.30;99.20;;;;;;4684797;30;20062;-81
2021/12/10 11:11:53;;;;;;;53.00;25.65;;;3.40;99.20;;;;;;4670386;30;20068;-81
2021/12/10 11:14:24;;;;;;;51.72;25.70;;;3.50;98.70;;;;;;4666042;30;20042;-82
2021/12/10 11:16:54;;;;;;;46.17;24.60;;;3.30;98.60;;;;;;4666984;30;20034;-82
2021/12/10 11:19:23;;;;;;;49.60;25.05;;;3.20;98.80;;;;;;4654260;30;20043;-82
2021/12/10 11:21:55;;;;;;;49.42;25.55;;;3.30;99.30;;;;;;4665770;30;20061;-82
2021/12/10 11:24:23;;;;;;;50.47;25.85;;;3.30;99.60;;;;;;4668279;30;20038;-82
2021/12/10 11:27:02;;;;;;;49.83;25.95;;;3.40;99.40;;;;;;4669490;30;20050;-81
2021/12/10 11:29:31;;;;;;;48.83;25.60;;;3.50;99.30;;;;;;4652506;30;20042;-82
2021/12/10 11:32:00;;;;;;;48.10;25.00;;;3.60;99.40;;;;;;4654791;30;20068;-82
2021/12/10 11:35:01;;;;;;;53.15;27.90;;;3.80;99.00;;;;;;4684548;30;20062;-82
2021/12/10 11:37:45;;;;;;;47.97;27.30;;;3.80;98.40;;;;;;4590453;31;20052;-82
2021/12/10 11:40:27;;;;;;;52.22;29.00;;;3.70;98.40;;;;;;4587920;31;20108;-82
2021/12/10 11:43:03;;;;;;;49.30;26.60;;;3.70;99.00;;;;;;4576436;31;20053;-82
2021/12/10 11:45:41;;;;;;;53.30;28.65;;;3.80;98.90;;;;;;4574787;31;20041;-82
2021/12/10 11:48:12;;;;;;;54.83;28.42;;;3.80;98.80;;;;;;4590671;31;20106;-82
2021/12/10 11:50:58;;;;;;;54.80;27.83;;;3.90;98.90;;;;;;4576710;31;20212;-81
2021/12/10 11:53:24;;;;;;;52.50;26.42;;;3.90;98.50;;;;;;4576474;31;20071;-81
2021/12/10 11:55:56;;;;;;;57.55;29.27;;;3.90;98.60;;;;;;4589957;31;20068;-82
2021/12/10 11:58:22;;;;;;;54.15;28.15;;;3.80;98.40;;;;;;4576580;31;20534;-82
2021/12/10 12:00:49;;;;;;;62.72;31.08;;;3.80;98.80;;;;;;4590014;31;20049;-82
2021/12/10 12:03:16;;;;;;;56.85;29.25;;;3.90;98.90;;;;;;4576618;31;20112;-82
2021/12/10 12:05:43;;;;;;;50.05;26.75;;;4.00;98.20;;;;;;4576753;31;20045;-82
2021/12/10 12:08:14;;;;;;;53.45;27.88;;;3.90;98.00;;;;;;4590143;31;20049;-82
2021/12/10 12:10:49;;;;;;;57.03;28.63;;;3.70;98.10;;;;;;4576418;31;20041;-82
2021/12/10 12:15:56;;;;;;;59.72;29.85;;;3.60;98.70;;;;;;4660474;30;20042;-82
2021/12/10 12:18:29;;;;;;;61.38;31.73;;;3.40;99.20;;;;;;4655141;30;20258;-82
2021/12/10 12:21:03;;;;;;;59.10;31.23;;;3.30;99.60;;;;;;4674535;30;20050;-82
2021/12/10 12:26:24;;;;;;;58.30;30.23;;;3.10;99.90;;;;;;4674263;30;20031;-82
2021/12/10 12:29:12;;;;;;;64.53;33.00;;;3.00;99.90;;;;;;4660654;30;20045;-82
2021/12/10 12:31:42;;;;;;;61.38;31.83;;;3.10;99.90;;;;;;4657532;30;20386;-82
2021/12/10 12:34:08;;;;;;;68.57;33.50;;;3.10;99.90;;;;;;4674772;30;20058;-82
2021/12/10 12:36:36;;;;;;;59.10;30.90;;;3.10;99.90;;;;;;4648909;30;20035;-82
2021/12/10 12:39:07;;;;;;;64.03;31.33;;;3.10;99.90;;;;;;4662719;30;20034;-82
2021/12/10 12:41:45;;;;;;;57.92;30.50;;;3.00;99.90;;;;;;4660035;30;20418;-82
2021/12/10 12:44:22;;;;;;;54.08;29.77;;;2.90;99.90;;;;;;4675403;30;20044;-82
2021/12/10 12:47:28;;;;;;;60.50;31.73;;;2.90;99.90;;;;;;4664094;30;20050;-82
2021/12/10 12:50:00;;;;;;;58.33;29.80;;;2.80;99.90;;;;;;4668856;30;20070;-82
2021/12/10 12:52:36;;;;;;;65.07;35.30;;;2.70;99.90;;;;;;4673804;30;20046;-82
2021/12/10 12:55:05;;;;;;;63.53;31.92;;;2.80;99.90;;;;;;4674359;30;20042;-82
2021/12/10 12:57:44;;;;;;;61.47;33.08;;;2.70;99.90;;;;;;4662253;30;20038;-82
2021/12/10 13:00:33;;;;;;;60.42;31.02;;;2.80;99.90;;;;;;4659910;30;20334;-83
2021/12/10 13:03:30;;;;;;;65.32;31.15;;;2.80;99.90;;;;;;4674218;30;20058;-83
2021/12/10 13:06:23;;;;;;;62.67;32.15;;;2.80;99.90;;;;;;4610765;31;20071;-83
2021/12/10 13:09:23;;;;;;;62.67;31.45;;;2.80;99.90;;;;;;4591194;31;20048;-83
2021/12/10 13:12:07;;;;;;;57.72;30.95;;;2.90;99.90;;;;;;4553559;31;20199;-83
2021/12/10 13:14:51;;;;;;;65.88;32.17;;;2.90;99.90;;;;;;4559230;31;20376;-82
2021/12/10 13:17:30;;;;;;;61.40;32.92;;;2.90;99.90;;;;;;4575995;31;20057;-83
2021/12/10 13:19:59;;;;;;;62.47;32.20;;;2.90;99.90;;;;;;4563867;31;20060;-83
2021/12/10 13:22:29;;;;;;;79.32;41.13;;;2.90;99.90;;;;;;4580232;31;20055;-83
2021/12/10 13:25:07;;;;;;;84.47;43.15;;;2.90;99.90;;;;;;4592841;31;20043;-83
2021/12/10 13:27:36;;;;;;;60.72;33.50;;;2.90;99.90;;;;;;4555177;31;20044;-83
2021/12/10 13:30:10;;;;;;;71.97;33.78;;;2.90;99.90;;;;;;4575297;31;20052;-83
2021/12/10 13:32:41;;;;;;;60.35;32.47;;;2.90;99.90;;;;;;4574495;31;20056;-83
2021/12/10 13:35:09;;;;;;;81.47;39.97;;;2.90;99.90;;;;;;4586521;31;20150;-83
2021/12/10 13:37:37;;;;;;;84.82;43.42;;;3.00;99.90;;;;;;4570493;31;20057;-83
2021/12/10 13:40:07;;;;;;;132.73;62.92;;;3.00;99.90;;;;;;4563608;31;20048;-83
2021/12/10 13:42:38;;;;;;;92.10;44.40;;;3.10;99.90;;;;;;4592285;31;20049;-83
2021/12/10 13:45:25;;;;;;;65.38;33.75;;;3.00;99.90;;;;;;4583621;31;20049;-83
2021/12/10 13:48:02;;;;;;;57.47;32.75;;;3.00;99.90;;;;;;4580316;31;20068;-83
2021/12/10 13:50:33;;;;;;;;;;;3.10;99.90;;;;;;4557946;31;20098;-83
2021/12/10 13:53:08;;;;;;;61.72;32.38;;;3.10;99.90;;;;;;4569509;31;19947;-83
2021/12/10 13:55:55;;;;;;;57.50;30.60;;;3.00;99.90;;;;;;4564577;31;20041;-83
2021/12/10 13:58:26;;;;;;;;;;;3.00;99.90;;;;;;4556673;31;20057;-83
2021/12/10 14:01:10;;;;;;;60.85;28.90;;;3.00;99.90;;;;;;4550120;31;19921;-83
2021/12/10 14:04:11;;;;;;;65.40;31.95;;;2.90;99.90;;;;;;4568802;31;20114;-83
2021/12/10 14:06:56;;;;;;;66.03;34.85;;;2.80;99.90;;;;;;4528921;31;20046;-83
2021/12/10 14:09:43;;;;;;;64.55;32.88;;;2.60;99.90;;;;;;4531401;31;20333;-83
2021/12/10 14:15:04;;;;;;;69.72;35.22;;;2.60;99.90;;;;;;4545060;31;20054;-83
2021/12/10 14:17:34;;;;;;;64.50;33.72;;;2.50;99.90;;;;;;4536719;31;20056;-83
2021/12/10 14:20:11;;;;;;;70.53;35.47;;;2.50;99.90;;;;;;4538326;31;20418;-83
2021/12/10 14:22:48;;;;;;;66.40;32.63;;;2.60;99.90;;;;;;4534271;31;20098;-83
2021/12/10 14:25:21;;;;;;;62.28;31.10;;;2.50;99.90;;;;;;4544812;31;20342;-84
2021/12/10 14:27:54;;;;;;;65.47;33.75;;;2.50;99.90;;;;;;4555491;31;20054;-83
2021/12/10 14:31:05;;;;;;;70.13;36.25;;;2.40;99.90;;;;;;4561463;31;20068;-83
2021/12/10 14:33:39;;;;;;;67.68;32.88;;;2.40;99.90;;;;;;4542899;31;20235;-83
2021/12/10 14:36:06;;;;;;;61.72;32.40;;;2.30;99.90;;;;;;4554705;31;20134;-82
2021/12/10 14:38:41;;;;;;;61.22;32.30;;;2.30;99.90;;;;;;4589374;31;20140;-83
2021/12/10 14:41:15;;;;;;;63.40;33.40;;;2.30;99.90;;;;;;4589530;31;20275;-83
2021/12/10 14:43:49;;;;;;;60.75;30.90;;;2.30;99.90;;;;;;4595451;31;20066;-83
2021/12/10 14:46:35;;;;;;;70.93;34.25;;;2.20;99.90;;;;;;4591578;31;20056;-82
2021/12/10 14:49:28;;;;;;;66.28;32.28;;;2.20;99.90;;;;;;4603085;31;20043;-83
2021/12/10 14:52:23;;;;;;;62.65;30.90;;;2.30;99.90;;;;;;4619206;31;20040;-83
2021/12/10 14:54:52;;;;;;;74.35;35.17;;;2.30;99.90;;;;;;4605302;31;20048;-83
2021/12/10 14:57:18;;;;;;;69.15;33.33;;;2.20;99.90;;;;;;4602667;31;20044;-83
2021/12/10 14:59:45;;;;;;;64.93;33.85;;;2.20;99.90;;;;;;4610381;31;20091;-83
2021/12/10 15:02:19;;;;;;;65.68;33.60;;;2.20;99.90;;;;;;4595765;31;20275;-83
2021/12/10 15:05:03;;;;;;;68.80;34.85;;;2.30;99.90;;;;;;4608399;31;20225;-83
2021/12/10 15:07:40;;;;;;;68.47;33.28;;;2.20;99.90;;;;;;4608563;31;20033;-83
2021/12/10 15:10:20;;;;;;;70.60;34.70;;;2.30;99.90;;;;;;4610701;30;20069;-82
2021/12/10 15:12:48;;;;;;;75.80;35.50;;;2.20;99.90;;;;;;4670839;30;20041;-83
2021/12/10 15:15:15;;;;;;;71.10;34.33;;;2.30;99.90;;;;;;4667223;30;20235;-83
2021/12/10 15:17:41;;;;;;;;;;;2.30;99.90;;;;;;4678116;30;20270;-82
2021/12/10 15:20:28;;;;;;;71.13;34.87;;;2.30;99.90;;;;;;4675181;30;19919;-82
2021/12/10 15:22:55;;;;;;;76.55;38.00;;;2.30;99.90;;;;;;4642000;30;20317;-83
2021/12/10 15:25:22;;;;;;;68.97;34.65;;;2.30;99.90;;;;;;4675503;30;20049;-82
2021/12/10 15:28:04;;;;;;;76.43;36.42;;;2.30;99.90;;;;;;4664192;30;20034;-82
2021/12/10 15:30:38;;;;;;;74.03;35.40;;;2.30;99.90;;;;;;4675711;30;20038;-83
2021/12/10 15:33:10;;;;;;;70.55;35.03;;;2.20;99.90;;;;;;4674962;30;20042;-82
2021/12/10 15:35:54;;;;;;;73.25;38.03;;;2.20;99.90;;;;;;4661124;30;20097;-83
2021/12/10 15:38:21;;;;;;;85.93;38.17;;;2.20;99.90;;;;;;4665629;30;20069;-83
2021/12/10 15:41:02;;;;;;;75.38;37.72;;;2.10;99.90;;;;;;4671931;30;20046;-82
2021/12/10 15:43:39;;;;;;;76.18;36.55;;;2.20;99.90;;;;;;4667906;30;20042;-83
2021/12/10 15:46:27;;;;;;;76.20;37.97;;;2.20;99.90;;;;;;4674757;30;20054;-83
2021/12/10 15:48:57;;;;;;;74.70;36.78;;;2.20;99.90;;;;;;4674648;30;20084;-83
2021/12/10 15:51:29;;;;;;;83.75;38.40;;;2.20;99.90;;;;;;4674880;30;20035;-82
2021/12/10 15:54:01;;;;;;;75.97;36.28;;;2.20;99.90;;;;;;4675026;30;20068;-82
2021/12/10 15:56:31;;;;;;;87.60;42.33;;;2.20;99.90;;;;;;4669234;30;20042;-82
2021/12/10 15:59:00;;;;;;;82.80;39.65;;;2.20;99.90;;;;;;4675510;30;20026;-82
2021/12/10 16:01:32;;;;;;;78.13;38.25;;;2.20;99.90;;;;;;4675871;30;20062;-82
2021/12/10 16:04:03;;;;;;;87.22;39.75;;;2.20;99.90;;;;;;4655170;30;20046;-82
2021/12/10 16:06:29;;;;;;;78.65;38.30;;;2.20;99.90;;;;;;4643604;30;20034;-82
2021/12/10 16:08:56;;;;;;;74.07;36.90;;;2.20;99.90;;;;;;4671236;30;20035;-82
2021/12/10 16:11:25;;;;;;;77.20;37.58;;;2.20;99.90;;;;;;4666671;30;20296;-82
2021/12/10 16:13:54;;;;;;;77.47;36.53;;;2.20;99.90;;;;;;4653720;30;20322;-82
2021/12/10 16:16:25;;;;;;;87.70;40.28;;;2.20;99.90;;;;;;4665807;30;20038;-82
2021/12/10 16:18:52;;;;;;;78.13;37.30;;;2.10;99.90;;;;;;4664960;30;20042;-82
2021/12/10 16:21:34;;;;;;;72.90;37.47;;;2.10;99.90;;;;;;4667058;30;20031;-82
2021/12/10 16:24:25;;;;;;;69.13;36.15;;;2.10;99.90;;;;;;4666010;30;20215;-82
2021/12/10 16:27:04;;;;;;;70.35;36.75;;;2.10;99.90;;;;;;4669549;30;20066;-82
2021/12/10 16:29:35;;;;;;;78.90;40.58;;;2.10;99.90;;;;;;4682884;30;20085;-82
2021/12/10 16:32:12;;;;;;;73.10;37.25;;;2.10;99.90;;;;;;4679024;30;20034;-82
2021/12/10 16:34:39;;;;;;;79.80;40.75;;;2.10;99.90;;;;;;4678827;30;20102;-82
2021/12/10 16:37:08;;;;;;;74.25;37.17;;;2.10;99.90;;;;;;4660594;30;20042;-82
2021/12/10 16:39:38;;;;;;;84.65;39.05;;;2.10;99.90;;;;;;4674822;30;20039;-82
2021/12/10 16:42:06;;;;;;;75.70;37.20;;;2.00;99.90;;;;;;4674959;30;20030;-82
2021/12/10 16:44:32;;;;;;;76.75;36.00;;;2.00;99.90;;;;;;4674918;30;20331;-81
2021/12/10 16:47:03;;;;;;;73.88;36.88;;;2.00;99.90;;;;;;4648881;30;20066;-82
2021/12/10 16:49:31;;;;;;;78.15;37.85;;;2.00;99.90;;;;;;4656185;30;20112;-82